Time;durP1;ratioP1;P1;durP2;ratioP2;P2;SDS_P1;SDS_P2;PMS_P1;PMS_P2;Temp;Humidity;BMP_temperature;BMP_pressure;BME280_temperature;BME280_humidity;BME280_pressure;Samples;Min_cycle;Max_cycle;Signal;HPM_P1;HPM_P2
2024/01/29 00:00:53;;;;;;;0.40;0.40;;;;;;;4.54;100.00;101283.34;5099318;28;20035;-78
2024/01/29 00:03:19;;;;;;;0.50;0.50;;;;;;;4.52;100.00;101285.28;5082611;28;20063;-78
2024/01/29 00:05:45;;;;;;;0.40;0.40;;;;;;;4.52;100.00;101287.94;5082693;28;20036;-78
2024/01/29 00:08:11;;;;;;;0.45;0.45;;;;;;;4.49;100.00;101305.00;5082483;28;20506;-78
2024/01/29 00:10:36;;;;;;;0.50;0.50;;;;;;;4.51;100.00;101307.56;5082445;28;20023;-79
2024/01/29 00:13:02;;;;;;;0.40;0.40;;;;;;;4.50;100.00;101309.41;5082259;28;20387;-78
2024/01/29 00:15:28;;;;;;;0.50;0.50;;;;;;;4.52;100.00;101310.09;5098825;28;20020;-78
2024/01/29 00:17:53;;;;;;;0.45;0.45;;;;;;;4.50;100.00;101295.22;5082422;28;20092;-78
2024/01/29 00:20:19;;;;;;;0.40;0.40;;;;;;;4.48;100.00;101310.47;5099052;28;20035;-78
2024/01/29 00:22:45;;;;;;;0.40;0.40;;;;;;;4.51;100.00;101318.22;5082351;28;20039;-78
2024/01/29 00:25:10;;;;;;;0.50;0.50;;;;;;;4.45;100.00;101322.22;5081978;28;20469;-78
2024/01/29 00:27:36;;;;;;;0.40;0.40;;;;;;;4.39;100.00;101328.88;5098941;28;20380;-78
2024/01/29 00:30:02;;;;;;;0.50;0.50;;;;;;;4.34;100.00;101320.41;5099890;28;20065;-78
2024/01/29 00:32:29;;;;;;;0.40;0.40;;;;;;;4.32;100.00;101318.84;5098733;28;20031;-78
2024/01/29 00:34:55;;;;;;;0.47;0.47;;;;;;;4.27;100.00;101321.88;5081893;28;20431;-78
2024/01/29 00:37:22;;;;;;;0.40;0.40;;;;;;;4.21;100.00;101325.03;5081832;28;20027;-78
2024/01/29 00:39:50;;;;;;;0.40;0.40;;;;;;;4.18;100.00;101311.94;5098811;28;20040;-78
2024/01/29 00:42:16;;;;;;;0.50;0.50;;;;;;;4.16;100.00;101321.88;5098876;28;20038;-78
2024/01/29 00:44:42;;;;;;;0.50;0.50;;;;;;;4.15;100.00;101322.81;5081663;28;20122;-78
2024/01/29 00:47:09;;;;;;;0.40;0.40;;;;;;;4.19;100.00;101326.94;5098314;28;20027;-78
2024/01/29 00:49:35;;;;;;;0.40;0.40;;;;;;;4.25;100.00;101326.44;5081375;28;20063;-78
2024/01/29 00:52:04;;;;;;;0.50;0.50;;;;;;;4.25;100.00;101331.78;5099042;28;20043;-78
2024/01/29 00:54:30;;;;;;;0.40;0.40;;;;;;;4.24;100.00;101335.41;5099634;28;20035;-78
2024/01/29 00:56:56;;;;;;;0.47;0.47;;;;;;;4.23;100.00;101332.88;5081508;28;20028;-78
2024/01/29 00:59:22;;;;;;;0.40;0.40;;;;;;;4.30;100.00;101342.91;5081645;28;20502;-78
2024/01/29 01:01:48;;;;;;;0.40;0.40;;;;;;;4.31;100.00;101338.44;5081601;28;20031;-78
2024/01/29 01:04:17;;;;;;;0.40;0.40;;;;;;;4.33;100.00;101337.34;5098022;28;20066;-78
2024/01/29 01:06:42;;;;;;;0.40;0.40;;;;;;;4.36;100.00;101338.91;5098516;28;20035;-78
2024/01/29 01:09:09;;;;;;;0.50;0.50;;;;;;;4.31;100.00;101333.97;5081483;28;20028;-78
2024/01/29 01:11:35;;;;;;;0.50;0.50;;;;;;;4.33;100.00;101333.84;5115419;28;20028;-78
2024/01/29 01:14:01;;;;;;;0.40;0.40;;;;;;;4.32;100.00;101340.13;5081916;28;20380;-78
2024/01/29 01:16:27;;;;;;;0.43;0.43;;;;;;;4.26;100.00;101338.81;5081263;28;20035;-78
2024/01/29 01:18:53;;;;;;;0.50;0.50;;;;;;;4.22;100.00;101337.34;5080910;28;20039;-78
2024/01/29 01:21:19;;;;;;;0.40;0.40;;;;;;;4.26;100.00;101336.16;5081163;28;20043;-78
2024/01/29 01:23:45;;;;;;;0.50;0.50;;;;;;;4.26;100.00;101338.81;5081248;28;20353;-78
2024/01/29 01:26:11;;;;;;;0.45;0.45;;;;;;;4.24;100.00;101337.25;5097632;28;20039;-78
2024/01/29 01:28:37;;;;;;;0.40;0.40;;;;;;;4.18;100.00;101339.41;5080976;28;20382;-78
2024/01/29 01:31:02;;;;;;;0.50;0.50;;;;;;;4.13;100.00;101338.91;5081097;28;20546;-78
2024/01/29 01:33:28;;;;;;;0.40;0.40;;;;;;;4.10;100.00;101340.97;5080820;28;20381;-78
2024/01/29 01:35:54;;;;;;;0.45;0.45;;;;;;;4.06;100.00;101340.34;5081243;28;20058;-78
2024/01/29 01:38:19;;;;;;;0.50;0.50;;;;;;;4.14;100.00;101342.44;5080733;28;20413;-78
2024/01/29 01:40:45;;;;;;;0.40;0.40;;;;;;;4.19;100.00;101340.25;5114569;28;20030;-78
2024/01/29 01:43:18;;;;;;;0.40;0.40;;;;;;;4.22;100.00;101340.00;5098430;28;20467;-78
2024/01/29 01:45:44;;;;;;;0.50;0.50;;;;;;;4.17;100.00;101348.34;5114020;28;20520;-78
2024/01/29 01:48:13;;;;;;;0.40;0.40;;;;;;;4.12;100.00;101358.50;5081573;28;20146;-78
2024/01/29 01:50:39;;;;;;;0.50;0.50;;;;;;;4.12;100.00;101357.66;5097488;28;20042;-78
2024/01/29 01:53:04;;;;;;;0.40;0.40;;;;;;;4.12;100.00;101361.16;5080420;28;20443;-78
2024/01/29 01:55:30;;;;;;;0.40;0.40;;;;;;;4.10;100.00;101354.25;5080587;28;20442;-78
2024/01/29 01:57:57;;;;;;;0.40;0.40;;;;;;;4.06;100.00;101364.31;5080562;28;20035;-78
2024/01/29 02:00:23;;;;;;;0.40;0.40;;;;;;;4.03;100.00;101361.88;5079567;28;20039;-78
2024/01/29 02:02:48;;;;;;;0.47;0.47;;;;;;;4.01;100.00;101362.97;5080592;28;20038;-78
2024/01/29 02:05:14;;;;;;;0.40;0.40;;;;;;;3.95;100.00;101357.16;5079643;28;20503;-78
2024/01/29 02:07:40;;;;;;;0.40;0.40;;;;;;;3.94;100.00;101357.25;5080382;28;20035;-78
2024/01/29 02:10:06;;;;;;;0.40;0.40;;;;;;;3.92;100.00;101367.19;5080299;28;20062;-78
2024/01/29 02:12:32;;;;;;;0.40;0.40;;;;;;;3.88;100.00;101374.53;5079996;28;20055;-78
2024/01/29 02:14:57;;;;;;;0.40;0.40;;;;;;;3.87;100.00;101375.53;5080071;28;20063;-78
2024/01/29 02:17:23;;;;;;;0.50;0.50;;;;;;;3.82;100.00;101385.66;5080067;28;20063;-78
2024/01/29 02:19:49;;;;;;;0.50;0.50;;;;;;;3.77;100.00;101382.50;5096572;28;20023;-78
2024/01/29 02:22:14;;;;;;;0.40;0.40;;;;;;;3.76;100.00;101388.81;5080542;28;20482;-78
2024/01/29 02:24:40;;;;;;;0.40;0.40;;;;;;;3.70;100.00;101398.06;5079805;28;20400;-78
2024/01/29 02:27:06;;;;;;;0.50;0.50;;;;;;;3.67;100.00;101398.31;5113865;28;20164;-78
2024/01/29 02:29:32;;;;;;;0.50;0.50;;;;;;;3.70;100.00;101405.19;5080141;28;20040;-78
2024/01/29 02:31:57;;;;;;;0.40;0.40;;;;;;;3.66;100.00;101407.25;5080262;28;20039;-78
2024/01/29 02:34:23;;;;;;;0.50;0.50;;;;;;;3.65;100.00;101420.66;5079964;28;20084;-77
2024/01/29 02:36:49;;;;;;;0.40;0.40;;;;;;;3.62;100.00;101426.22;5096696;28;20356;-77
2024/01/29 02:39:14;;;;;;;0.40;0.40;;;;;;;3.58;100.00;101424.75;5079806;28;20031;-77
2024/01/29 02:41:40;;;;;;;0.40;0.40;;;;;;;3.53;100.00;101422.44;5079614;28;20429;-78
2024/01/29 02:44:06;;;;;;;0.50;0.50;;;;;;;3.53;100.00;101436.56;5079545;28;20028;-78
2024/01/29 02:46:31;;;;;;;0.47;0.47;;;;;;;3.53;100.00;101433.91;5079542;28;20074;-78
2024/01/29 02:48:57;;;;;;;0.40;0.40;;;;;;;3.45;100.00;101433.63;5096080;28;20032;-78
2024/01/29 02:51:23;;;;;;;0.40;0.40;;;;;;;3.28;100.00;101426.03;5096599;28;20376;-78
2024/01/29 02:53:48;;;;;;;0.50;0.50;;;;;;;3.21;100.00;101430.97;5079548;28;20039;-78
2024/01/29 02:56:14;;;;;;;0.40;0.40;;;;;;;3.14;100.00;101420.88;5079471;28;20034;-77
2024/01/29 02:58:40;;;;;;;0.50;0.50;;;;;;;3.08;100.00;101420.38;5079362;28;20511;-78
2024/01/29 03:01:05;;;;;;;0.40;0.40;;;;;;;3.05;100.00;101425.06;5079554;28;20043;-78
2024/01/29 03:03:31;;;;;;;0.50;0.50;;;;;;;3.03;100.00;101414.53;5079319;28;20031;-78
2024/01/29 03:05:57;;;;;;;0.50;0.50;;;;;;;3.07;100.00;101415.19;5079257;28;20055;-78
2024/01/29 03:08:22;;;;;;;0.50;0.50;;;;;;;3.06;100.00;101414.31;5079376;28;20036;-78
2024/01/29 03:10:48;;;;;;;0.50;0.50;;;;;;;3.05;100.00;101422.41;5079054;28;20039;-78
2024/01/29 03:13:14;;;;;;;0.50;0.50;;;;;;;3.04;100.00;101421.56;5079021;28;20032;-78
2024/01/29 03:15:39;;;;;;;0.40;0.40;;;;;;;3.06;100.00;101424.09;5079215;28;20123;-78
2024/01/29 03:18:05;;;;;;;0.50;0.50;;;;;;;3.12;100.00;101426.28;5079350;28;20040;-78
2024/01/29 03:20:30;;;;;;;0.40;0.40;;;;;;;3.19;100.00;101418.75;5095635;28;20040;-78
2024/01/29 03:22:56;;;;;;;0.50;0.50;;;;;;;3.16;100.00;101424.28;5079266;28;20032;-78
2024/01/29 03:25:22;;;;;;;0.40;0.40;;;;;;;3.13;100.00;101433.34;5079138;28;20464;-78
2024/01/29 03:27:47;;;;;;;0.40;0.40;;;;;;;3.12;100.00;101433.44;5079199;28;20027;-78
2024/01/29 03:30:13;;;;;;;0.50;0.50;;;;;;;3.12;100.00;101428.97;5079463;28;20043;-78
2024/01/29 03:32:40;;;;;;;0.50;0.50;;;;;;;3.05;100.00;101425.91;5079117;28;20375;-78
2024/01/29 03:35:06;;;;;;;0.50;0.50;;;;;;;3.12;100.00;101444.06;5112646;28;20038;-78
2024/01/29 03:37:31;;;;;;;0.40;0.40;;;;;;;3.09;100.00;101448.63;5078691;28;20040;-78
2024/01/29 03:39:57;;;;;;;0.40;0.40;;;;;;;3.08;100.00;101449.59;5078835;28;20468;-78
2024/01/29 03:42:23;;;;;;;0.50;0.50;;;;;;;3.06;100.00;101451.50;5079100;28;20078;-78
2024/01/29 03:44:48;;;;;;;0.50;0.50;;;;;;;3.06;100.00;101443.53;5095851;28;20028;-78
2024/01/29 03:47:14;;;;;;;0.40;0.40;;;;;;;3.08;100.00;101446.09;5078858;28;20375;-78
2024/01/29 03:49:40;;;;;;;0.50;0.50;;;;;;;3.03;100.00;101441.09;5078995;28;20467;-78
2024/01/29 03:52:05;;;;;;;0.50;0.50;;;;;;;3.01;100.00;101427.06;5078952;28;20375;-78
2024/01/29 03:54:31;;;;;;;0.50;0.50;;;;;;;2.97;100.00;101422.97;5095816;28;20112;-78
2024/01/29 03:56:56;;;;;;;0.50;0.50;;;;;;;2.95;100.00;101416.91;5078741;28;20395;-78
2024/01/29 03:59:22;;;;;;;0.50;0.50;;;;;;;2.91;100.00;101412.78;5078577;28;20032;-78
2024/01/29 04:01:48;;;;;;;0.40;0.40;;;;;;;2.90;100.00;101407.56;5078697;28;20035;-78
2024/01/29 04:04:15;;;;;;;0.50;0.50;;;;;;;2.88;100.00;101410.31;5095614;28;20471;-78
2024/01/29 04:06:40;;;;;;;0.40;0.40;;;;;;;2.87;100.00;101424.56;5078624;28;20039;-78
2024/01/29 04:09:09;;;;;;;0.50;0.50;;;;;;;2.82;100.00;101422.25;5078744;28;20036;-78
2024/01/29 04:11:35;;;;;;;0.40;0.40;;;;;;;2.79;100.00;101411.84;5095768;28;20031;-78
2024/01/29 04:14:00;;;;;;;0.40;0.40;;;;;;;2.73;100.00;101408.78;5078641;28;20040;-78
2024/01/29 04:16:26;;;;;;;0.50;0.50;;;;;;;2.67;100.00;101415.34;5078512;28;20089;-79
2024/01/29 04:18:52;;;;;;;0.50;0.50;;;;;;;2.67;100.00;101419.81;5078760;28;20043;-78
2024/01/29 04:21:18;;;;;;;0.50;0.50;;;;;;;2.66;100.00;101416.31;5078738;28;20031;-78
2024/01/29 04:23:43;;;;;;;0.50;0.50;;;;;;;2.64;100.00;101404.97;5080579;28;20027;-78
2024/01/29 04:26:10;;;;;;;0.50;0.50;;;;;;;2.64;100.00;101408.44;5082046;28;20118;-77
2024/01/29 04:28:35;;;;;;;0.40;0.40;;;;;;;2.61;100.00;101400.72;5099207;28;20375;-78
2024/01/29 04:31:01;;;;;;;0.50;0.50;;;;;;;2.58;100.00;101402.75;5082286;28;20050;-78
2024/01/29 04:33:26;;;;;;;0.50;0.50;;;;;;;2.52;100.00;101409.34;5081988;28;20032;-78
2024/01/29 04:35:52;;;;;;;0.50;0.50;;;;;;;2.59;100.00;101410.63;5081924;28;20028;-78
2024/01/29 04:38:18;;;;;;;0.50;0.50;;;;;;;2.64;100.00;101412.91;5081997;28;20126;-78
2024/01/29 04:40:43;;;;;;;0.50;0.50;;;;;;;2.64;100.00;101408.44;5081996;28;20038;-78
2024/01/29 04:43:09;;;;;;;0.43;0.43;;;;;;;2.64;100.00;101408.44;5081787;28;20035;-78
2024/01/29 04:45:35;;;;;;;0.50;0.50;;;;;;;2.63;100.00;101413.88;5081828;28;20119;-78
2024/01/29 04:48:00;;;;;;;0.50;0.50;;;;;;;2.60;100.00;101419.41;5081872;28;20159;-78
2024/01/29 04:50:26;;;;;;;0.50;0.50;;;;;;;2.55;100.00;101425.03;5098510;28;20024;-78
2024/01/29 04:52:52;;;;;;;0.50;0.50;;;;;;;2.50;100.00;101435.13;5081714;28;20039;-78
2024/01/29 04:55:17;;;;;;;0.50;0.50;;;;;;;2.45;100.00;101429.28;5081616;28;20035;-78
2024/01/29 04:57:43;;;;;;;0.50;0.50;;;;;;;2.45;100.00;101429.28;5081183;28;20091;-78
2024/01/29 05:00:09;;;;;;;0.50;0.50;;;;;;;2.37;100.00;101426.34;5081671;28;20028;-78
2024/01/29 05:02:35;;;;;;;0.50;0.50;;;;;;;2.28;100.00;101426.97;5098308;28;20039;-78
2024/01/29 05:05:02;;;;;;;0.50;0.50;;;;;;;2.24;100.00;101431.63;5097751;28;20039;-78
2024/01/29 05:07:27;;;;;;;0.50;0.50;;;;;;;2.22;100.00;101435.34;5081521;28;20511;-78
2024/01/29 05:09:54;;;;;;;0.50;0.50;;;;;;;2.23;100.00;101434.41;5081110;28;20062;-78
2024/01/29 05:12:19;;;;;;;0.50;0.50;;;;;;;2.23;100.00;101437.91;5081473;28;20046;-78
2024/01/29 05:14:45;;;;;;;0.50;0.50;;;;;;;2.21;100.00;101434.50;5081243;28;20122;-78
2024/01/29 05:17:11;;;;;;;0.50;0.50;;;;;;;2.20;100.00;101441.63;5080833;28;20050;-78
2024/01/29 05:19:38;;;;;;;0.50;0.50;;;;;;;2.19;100.00;101441.72;5081049;28;20475;-78
2024/01/29 05:22:04;;;;;;;0.50;0.50;;;;;;;2.29;100.00;101449.91;5081439;28;20118;-78
2024/01/29 05:24:30;;;;;;;0.50;0.50;;;;;;;2.31;100.00;101448.00;5114747;28;20027;-78
2024/01/29 05:26:55;;;;;;;0.50;0.50;;;;;;;2.27;100.00;101441.19;5081076;28;20030;-78
2024/01/29 05:29:21;;;;;;;0.50;0.50;;;;;;;2.27;100.00;101435.88;5080921;28;20039;-78
2024/01/29 05:31:46;;;;;;;0.50;0.50;;;;;;;2.22;100.00;101443.31;5080769;28;20395;-78
2024/01/29 05:34:12;;;;;;;0.50;0.50;;;;;;;2.22;100.00;101444.16;5080939;28;20039;-78
2024/01/29 05:36:38;;;;;;;0.43;0.43;;;;;;;2.26;100.00;101439.50;5080868;28;20471;-77
2024/01/29 05:39:04;;;;;;;0.40;0.40;;;;;;;2.31;100.00;101450.66;5097693;28;20173;-78
2024/01/29 05:41:29;;;;;;;0.43;0.43;;;;;;;2.34;100.00;101456.59;5097483;28;20188;-78
2024/01/29 05:43:55;;;;;;;0.50;0.50;;;;;;;2.33;100.00;101459.31;5097094;28;20027;-80
2024/01/29 05:46:21;;;;;;;0.50;0.50;;;;;;;2.37;100.00;101460.84;5080515;28;20047;-78
2024/01/29 05:48:48;;;;;;;0.50;0.50;;;;;;;2.37;100.00;101466.13;5114017;28;20027;-78
2024/01/29 05:51:14;;;;;;;0.50;0.50;;;;;;;2.40;100.00;101473.88;5097292;28;20039;-78
2024/01/29 05:53:39;;;;;;;0.47;0.47;;;;;;;2.39;100.00;101470.38;5080278;28;20035;-78
2024/01/29 05:56:05;;;;;;;0.50;0.50;;;;;;;2.37;100.00;101468.78;5080451;28;20031;-78
2024/01/29 05:58:33;;;;;;;0.40;0.40;;;;;;;2.37;100.00;101476.75;5080469;28;20467;-78
2024/01/29 06:00:59;;;;;;;0.50;0.50;;;;;;;2.41;100.00;101480.91;5080722;28;20543;-78
2024/01/29 06:03:25;;;;;;;0.50;0.50;;;;;;;2.40;100.00;101489.81;5080323;28;20035;-79
2024/01/29 06:05:51;;;;;;;0.50;0.50;;;;;;;2.38;100.00;101481.09;5097177;28;20612;-78
2024/01/29 06:08:17;;;;;;;0.50;0.50;;;;;;;2.39;100.00;101482.81;5080254;28;20052;-78
2024/01/29 06:10:43;;;;;;;0.50;0.50;;;;;;;2.36;100.00;101481.22;5063724;28;20062;-77
2024/01/29 06:13:08;;;;;;;0.50;0.50;;;;;;;2.35;100.00;101484.81;5080454;28;20035;-78
2024/01/29 06:15:37;;;;;;;0.40;0.40;;;;;;;2.32;100.00;101482.38;5097179;28;20428;-78
2024/01/29 06:18:04;;;;;;;0.50;0.50;;;;;;;2.29;100.00;101477.28;5080184;28;20063;-77
2024/01/29 06:20:30;;;;;;;0.50;0.50;;;;;;;2.25;100.00;101481.09;5080031;28;20040;-77
2024/01/29 06:22:55;;;;;;;0.52;0.52;;;;;;;2.25;100.00;101485.53;5096797;28;20426;-77
2024/01/29 06:25:21;;;;;;;0.40;0.40;;;;;;;2.22;100.00;101499.88;5079291;28;20479;-77
2024/01/29 06:27:47;;;;;;;0.50;0.50;;;;;;;2.24;100.00;101499.78;5079673;28;20020;-77
2024/01/29 06:30:13;;;;;;;0.50;0.50;;;;;;;2.23;100.00;101493.63;5113235;28;20368;-77
2024/01/29 06:32:39;;;;;;;0.50;0.50;;;;;;;2.26;100.00;101498.72;5096617;28;20063;-78
2024/01/29 06:35:05;;;;;;;0.50;0.50;;;;;;;2.28;100.00;101501.28;5079791;28;20055;-77
2024/01/29 06:37:30;;;;;;;0.40;0.40;;;;;;;2.29;100.00;101498.50;5079781;28;20036;-78
2024/01/29 06:39:56;;;;;;;0.50;0.50;;;;;;;2.29;100.00;101495.00;5079746;28;20421;-78
2024/01/29 06:42:22;;;;;;;0.50;0.50;;;;;;;2.28;100.00;101491.50;5079690;28;20051;-78
2024/01/29 06:44:47;;;;;;;0.50;0.50;;;;;;;2.26;100.00;101485.44;5096396;28;20043;-78
2024/01/29 06:47:17;;;;;;;0.40;0.40;;;;;;;2.24;100.00;101487.34;5078722;28;20024;-78
2024/01/29 06:49:43;;;;;;;0.40;0.40;;;;;;;2.23;100.00;101483.00;5096754;28;20027;-78
2024/01/29 06:52:08;;;;;;;0.50;0.50;;;;;;;2.22;100.00;101480.44;5079467;28;20088;-78
2024/01/29 06:54:34;;;;;;;0.50;0.50;;;;;;;2.24;100.00;101478.53;5079497;28;20037;-78
2024/01/29 06:57:00;;;;;;;0.50;0.50;;;;;;;2.26;100.00;101484.59;5079427;28;20379;-78
2024/01/29 06:59:26;;;;;;;0.50;0.50;;;;;;;2.26;100.00;101484.59;5096138;28;20416;-78
2024/01/29 07:01:52;;;;;;;0.50;0.50;;;;;;;2.26;100.00;101490.75;5079140;28;20475;-78
2024/01/29 07:04:19;;;;;;;0.50;0.50;;;;;;;2.29;100.00;101502.97;5096162;28;20036;-78
2024/01/29 07:06:44;;;;;;;0.50;0.50;;;;;;;2.29;100.00;101509.13;5079376;28;20039;-78
2024/01/29 07:09:10;;;;;;;0.40;0.40;;;;;;;2.32;100.00;101508.91;5079094;28;20455;-78
2024/01/29 07:11:36;;;;;;;0.40;0.40;;;;;;;2.33;100.00;101507.09;5079242;28;20039;-78
2024/01/29 07:14:01;;;;;;;0.50;0.50;;;;;;;2.34;100.00;101517.63;5079215;28;20035;-77
2024/01/29 07:16:27;;;;;;;0.50;0.50;;;;;;;2.35;100.00;101519.31;5079342;28;20032;-78
2024/01/29 07:18:53;;;;;;;0.50;0.50;;;;;;;2.33;100.00;101529.19;5095544;28;20434;-78
2024/01/29 07:21:18;;;;;;;0.50;0.50;;;;;;;2.34;100.00;101532.69;5079207;28;20387;-78
2024/01/29 07:23:44;;;;;;;0.50;0.50;;;;;;;2.37;100.00;101536.00;5112195;28;20055;-78
2024/01/29 07:26:10;;;;;;;0.50;0.50;;;;;;;2.37;100.00;101532.50;5079068;28;20042;-78
2024/01/29 07:28:35;;;;;;;0.50;0.50;;;;;;;2.34;100.00;101530.06;5095621;28;20084;-78
2024/01/29 07:31:01;;;;;;;0.50;0.50;;;;;;;2.30;100.00;101532.06;5078981;28;20031;-77
2024/01/29 07:33:26;;;;;;;0.50;0.50;;;;;;;2.30;100.00;101534.72;5078817;28;20391;-77
2024/01/29 07:35:52;;;;;;;0.50;0.50;;;;;;;2.34;100.00;101541.50;5079281;28;20421;-77
2024/01/29 07:38:18;;;;;;;0.50;0.50;;;;;;;2.36;100.00;101541.41;5078383;28;20460;-81
2024/01/29 07:40:43;;;;;;;0.50;0.50;;;;;;;2.37;100.00;101528.03;5078919;28;20439;-78
2024/01/29 07:43:09;;;;;;;0.50;0.50;;;;;;;2.36;100.00;101529.00;5078673;28;20028;-77
2024/01/29 07:45:35;;;;;;;0.50;0.50;;;;;;;2.40;100.00;101541.09;5078854;28;20032;-77
2024/01/29 07:48:03;;;;;;;0.50;0.50;;;;;;;2.42;100.00;101551.59;5095146;28;20106;-77
2024/01/29 07:50:31;;;;;;;0.50;0.50;;;;;;;2.45;100.00;101554.06;5079146;28;20063;-78
2024/01/29 07:52:57;;;;;;;0.50;0.50;;;;;;;2.43;100.00;101558.59;5079118;28;20035;-78
2024/01/29 07:55:23;;;;;;;0.50;0.50;;;;;;;2.40;100.00;101549.03;5078521;28;20028;-78
2024/01/29 07:57:52;;;;;;;0.50;0.50;;;;;;;2.39;100.00;101546.50;5096092;28;20043;-77
2024/01/29 08:00:20;;;;;;;0.50;0.50;;;;;;;2.34;100.00;101540.66;5116038;28;20114;-77
2024/01/29 08:02:45;;;;;;;0.40;0.40;;;;;;;2.39;100.00;101541.19;5099639;28;20051;-77
2024/01/29 08:05:11;;;;;;;0.50;0.50;;;;;;;2.41;100.00;101549.91;5082320;28;20120;-78
2024/01/29 08:07:37;;;;;;;0.50;0.50;;;;;;;2.44;100.00;101556.81;5082269;28;20046;-78
2024/01/29 08:10:04;;;;;;;0.50;0.50;;;;;;;2.47;100.00;101560.13;5082211;28;20378;-78
2024/01/29 08:12:31;;;;;;;0.50;0.50;;;;;;;2.46;100.00;101571.69;5099074;28;20032;-78
2024/01/29 08:14:56;;;;;;;0.50;0.50;;;;;;;2.44;100.00;101575.41;5081998;28;20032;-78
2024/01/29 08:17:22;;;;;;;0.50;0.50;;;;;;;2.41;100.00;101563.19;5082575;28;20039;-78
2024/01/29 08:19:48;;;;;;;0.40;0.40;;;;;;;2.43;100.00;101569.22;5082568;28;20059;-78
2024/01/29 08:22:14;;;;;;;0.43;0.43;;;;;;;2.42;100.00;101564.88;5082113;28;20455;-78
2024/01/29 08:24:39;;;;;;;0.50;0.50;;;;;;;2.45;100.00;101567.31;5081925;28;20138;-78
2024/01/29 08:27:05;;;;;;;0.50;0.50;;;;;;;2.48;100.00;101567.09;5082035;28;20386;-78
2024/01/29 08:29:31;;;;;;;0.50;0.50;;;;;;;2.49;100.00;101563.53;5098799;28;20024;-78
2024/01/29 08:31:56;;;;;;;0.40;0.40;;;;;;;2.48;100.00;101571.56;5081979;28;20038;-78
2024/01/29 08:34:23;;;;;;;0.50;0.50;;;;;;;2.49;100.00;101567.97;5081919;28;20063;-78
2024/01/29 08:36:48;;;;;;;0.50;0.50;;;;;;;2.50;100.00;101569.69;5082110;28;20420;-78
2024/01/29 08:39:14;;;;;;;0.50;0.50;;;;;;;2.49;100.00;101576.78;5082037;28;20080;-78
2024/01/29 08:41:40;;;;;;;0.50;0.50;;;;;;;2.50;100.00;101585.59;5081531;28;20515;-78
2024/01/29 08:44:06;;;;;;;0.40;0.40;;;;;;;2.54;100.00;101589.72;5081530;28;20032;-78
2024/01/29 08:46:32;;;;;;;0.50;0.50;;;;;;;2.57;100.00;101593.06;5081648;28;20483;-78
2024/01/29 08:48:57;;;;;;;0.50;0.50;;;;;;;2.54;100.00;101582.66;5081722;28;20039;-78
2024/01/29 08:51:23;;;;;;;0.50;0.50;;;;;;;2.56;100.00;101580.72;5081806;28;20028;-78
2024/01/29 08:53:49;;;;;;;0.50;0.50;;;;;;;2.58;100.00;101591.25;5081073;28;20039;-78
2024/01/29 08:56:15;;;;;;;0.50;0.50;;;;;;;2.57;100.00;101585.09;5081377;28;20466;-78
2024/01/29 08:58:41;;;;;;;0.50;0.50;;;;;;;2.59;100.00;101579.66;5098342;28;20035;-78
2024/01/29 09:01:07;;;;;;;0.50;0.50;;;;;;;2.62;100.00;101572.34;5081649;28;20043;-78
2024/01/29 09:03:32;;;;;;;0.50;0.50;;;;;;;2.69;100.00;101570.13;5081082;28;20035;-78
2024/01/29 09:05:58;;;;;;;0.50;0.50;;;;;;;2.76;100.00;101570.56;5081424;28;20040;-78
2024/01/29 09:08:24;;;;;;;0.50;0.50;;;;;;;2.79;100.00;101571.19;5080681;28;20041;-78
2024/01/29 09:10:50;;;;;;;0.50;0.50;;;;;;;2.84;100.00;101578.84;5081326;28;20032;-77
2024/01/29 09:13:15;;;;;;;0.50;0.50;;;;;;;2.88;100.00;101585.63;5081151;28;20032;-78
2024/01/29 09:15:50;;;;;;;0.50;0.50;;;;;;;2.91;100.00;101585.44;5097374;28;20096;-77
2024/01/29 09:18:15;;;;;;;0.55;0.55;;;;;;;2.94;100.00;101582.56;5081137;28;20513;-77
2024/01/29 09:20:41;;;;;;;0.50;0.50;;;;;;;2.97;100.00;101568.22;5081231;28;20047;-77
2024/01/29 09:23:07;;;;;;;0.50;0.50;;;;;;;3.04;100.00;101564.16;5081161;28;20024;-77
2024/01/29 09:25:32;;;;;;;0.50;0.50;;;;;;;3.10;100.00;101566.41;5080871;28;20024;-77
2024/01/29 09:27:58;;;;;;;0.50;0.50;;;;;;;3.15;100.00;101566.94;5097869;28;20126;-77
2024/01/29 09:30:24;;;;;;;0.50;0.50;;;;;;;3.18;100.00;101564.06;5098214;28;20031;-77
2024/01/29 09:32:50;;;;;;;0.50;0.50;;;;;;;3.24;100.00;101566.28;5081038;28;20490;-76
2024/01/29 09:35:15;;;;;;;0.50;0.50;;;;;;;3.28;100.00;101570.44;5080923;28;20089;-77
2024/01/29 09:37:41;;;;;;;0.40;0.40;;;;;;;3.37;100.00;101582.22;5097736;28;20112;-77
2024/01/29 09:40:11;;;;;;;0.50;0.50;;;;;;;3.42;100.00;101596.03;5097879;28;20483;-77
2024/01/29 09:42:40;;;;;;;0.50;0.50;;;;;;;3.50;100.00;101603.47;5080777;28;20039;-77
2024/01/29 09:45:08;;;;;;;0.50;0.50;;;;;;;3.56;100.00;101588.88;5113935;28;20034;-77
2024/01/29 09:47:34;;;;;;;0.50;0.50;;;;;;;3.60;100.00;101593.00;5097399;28;20050;-77
2024/01/29 09:50:00;;;;;;;0.50;0.50;;;;;;;3.62;100.00;101607.03;5097548;28;20039;-77
2024/01/29 09:52:26;;;;;;;0.50;0.50;;;;;;;3.63;100.00;101601.63;5080501;28;20077;-77
2024/01/29 09:54:52;;;;;;;0.50;0.50;;;;;;;3.65;100.00;101614.81;5080622;28;20043;-77
2024/01/29 09:57:18;;;;;;;0.50;0.50;;;;;;;3.65;100.00;101598.84;5097470;28;20032;-77
2024/01/29 09:59:44;;;;;;;0.50;0.50;;;;;;;3.71;100.00;101606.41;5097427;28;20032;-77
2024/01/29 10:02:09;;;;;;;0.50;0.50;;;;;;;3.79;100.00;101597.88;5080990;28;20345;-79
2024/01/29 10:04:36;;;;;;;0.50;0.50;;;;;;;3.87;100.00;101592.84;5080229;28;20443;-77
2024/01/29 10:07:03;;;;;;;0.40;0.40;;;;;;;3.94;100.00;101597.59;5097024;28;20439;-77
2024/01/29 10:09:29;;;;;;;0.50;0.50;;;;;;;4.01;100.00;101597.13;5097004;28;20379;-77
2024/01/29 10:11:55;;;;;;;0.47;0.47;;;;;;;4.08;100.00;101604.56;5097211;28;20032;-77
2024/01/29 10:14:20;;;;;;;0.40;0.40;;;;;;;4.11;100.00;101612.31;5113857;28;20383;-77
2024/01/29 10:16:48;;;;;;;0.47;0.47;;;;;;;4.17;100.00;101617.19;5079874;28;20066;-77
2024/01/29 10:19:14;;;;;;;0.50;0.50;;;;;;;4.18;100.00;101612.69;5080502;28;20043;-77
2024/01/29 10:21:42;;;;;;;0.50;0.50;;;;;;;4.22;100.00;101608.88;5079136;28;20062;-77
2024/01/29 10:24:15;;;;;;;0.40;0.40;;;;;;;4.28;100.00;101613.72;5080007;28;20032;-77
2024/01/29 10:26:42;;;;;;;0.50;0.50;;;;;;;4.36;100.00;101618.47;5096538;28;20110;-77
2024/01/29 10:29:10;;;;;;;0.50;0.50;;;;;;;4.40;100.00;101615.47;5079805;28;20050;-77
2024/01/29 10:31:36;;;;;;;0.40;0.40;;;;;;;4.50;100.00;101620.97;5096792;28;20039;-77
2024/01/29 10:34:03;;;;;;;0.50;0.50;;;;;;;4.62;100.00;101614.72;5079413;28;20371;-77
2024/01/29 10:36:29;;;;;;;0.50;0.50;;;;;;;4.80;100.00;101622.28;5079726;28;20110;-77
2024/01/29 10:38:58;;;;;;;0.50;0.50;;;;;;;4.99;100.00;101616.38;5079297;28;20038;-77
2024/01/29 10:41:24;;;;;;;0.50;0.50;;;;;;;5.28;100.00;101616.78;5079529;28;20031;-76
2024/01/29 10:43:51;;;;;;;0.50;0.50;;;;;;;5.62;100.00;101619.44;5112834;28;20076;-77
2024/01/29 10:46:21;;;;;;;0.50;0.50;;;;;;;6.01;100.00;101607.41;5113081;28;20035;-77
2024/01/29 10:48:48;;;;;;;0.50;0.50;;;;;;;6.46;100.00;101609.94;5113259;28;20467;-77
2024/01/29 10:51:14;;;;;;;0.50;0.50;;;;;;;6.72;100.00;101613.09;5079426;28;20054;-77
2024/01/29 10:53:41;;;;;;;0.50;0.50;;;;;;;6.89;100.00;101614.31;5096048;28;20032;-77
2024/01/29 10:56:08;;;;;;;0.50;0.50;;;;;;;7.36;100.00;101613.88;5096335;28;20067;-77
2024/01/29 10:58:34;;;;;;;0.50;0.50;;;;;;;7.56;100.00;101612.09;5096313;28;20534;-77
2024/01/29 11:01:00;;;;;;;0.43;0.43;;;;;;;7.53;100.00;101610.56;5079468;28;20126;-77
2024/01/29 11:03:26;;;;;;;0.57;0.57;;;;;;;7.31;100.00;101619.63;5096185;28;20039;-77
2024/01/29 11:06:00;;;;;;;0.50;0.50;;;;;;;7.17;100.00;101636.88;5096052;28;20041;-77
2024/01/29 11:08:31;;;;;;;0.50;0.50;;;;;;;7.03;100.00;101635.34;5113053;28;20118;-77
2024/01/29 11:10:57;;;;;;;0.50;0.50;;;;;;;6.85;100.00;101631.56;5080242;28;20031;-77
2024/01/29 11:13:23;;;;;;;0.50;0.50;;;;;;;6.63;100.00;101629.03;5079834;28;20050;-77
2024/01/29 11:15:50;;;;;;;0.50;0.50;;;;;;;6.37;100.00;101624.03;5079362;28;20383;-77
2024/01/29 11:18:15;;;;;;;0.50;0.50;;;;;;;6.13;100.00;101625.06;5079337;28;20043;-78